Time;durP1;ratioP1;P1;durP2;ratioP2;P2;SDS_P1;SDS_P2;PMS_P1;PMS_P2;Temp;Humidity;BMP_temperature;BMP_pressure;BME280_temperature;BME280_humidity;BME280_pressure;Samples;Min_cycle;Max_cycle;Signal;HPM_P1;HPM_P2
2023/07/27 00:02:17;;;;;;;6.82;3.03;;;;;;;16.25;94.91;100824.53;5011816;28;20044;-78
2023/07/27 00:04:42;;;;;;;8.25;3.58;;;;;;;16.23;93.93;100824.16;5002828;28;20031;-78
2023/07/27 00:07:07;;;;;;;5.13;3.00;;;;;;;16.24;93.76;100820.91;5008374;28;20058;-78
2023/07/27 00:09:33;;;;;;;8.70;3.38;;;;;;;16.27;93.28;100822.09;5005480;28;20120;-79
2023/07/27 00:12:01;;;;;;;7.00;3.30;;;;;;;16.26;93.29;100820.50;5003138;28;20041;-78
2023/07/27 00:14:26;;;;;;;5.40;2.70;;;;;;;16.25;93.82;100818.88;4988280;28;20049;-78
2023/07/27 00:16:52;;;;;;;4.65;2.65;;;;;;;16.13;94.06;100810.94;5005827;28;20030;-78
2023/07/27 00:19:17;;;;;;;7.80;4.47;;;;;;;16.19;93.69;100797.97;4999003;28;20363;-78
2023/07/27 00:21:43;;;;;;;5.70;3.17;;;;;;;16.19;93.73;100809.25;5001372;28;20095;-77
2023/07/27 00:24:08;;;;;;;6.30;3.22;;;;;;;16.17;93.70;100811.72;5005194;28;20036;-77
2023/07/27 00:26:33;;;;;;;5.18;3.20;;;;;;;16.09;93.16;100799.69;4993413;28;20033;-78
2023/07/27 00:28:59;;;;;;;6.30;3.15;;;;;;;16.13;93.04;100802.47;5004915;28;20087;-78
2023/07/27 00:31:24;;;;;;;5.57;3.30;;;;;;;16.09;92.90;100793.25;5004759;28;20403;-77
2023/07/27 00:33:49;;;;;;;4.90;3.33;;;;;;;16.16;93.10;100791.16;4999148;28;20029;-77
2023/07/27 00:36:15;;;;;;;6.50;3.33;;;;;;;16.12;92.83;100792.41;4998038;28;20454;-78
2023/07/27 00:38:40;;;;;;;9.23;4.63;;;;;;;16.07;93.43;100785.19;5008349;28;20041;-77
2023/07/27 00:41:07;;;;;;;5.38;3.53;;;;;;;16.02;93.75;100788.47;5000826;28;20037;-77
2023/07/27 00:43:32;;;;;;;7.18;3.38;;;;;;;16.12;93.21;100789.59;5004601;28;20529;-77
2023/07/27 00:45:58;;;;;;;5.75;4.05;;;;;;;16.14;92.74;100778.66;5001807;28;20041;-78
2023/07/27 00:48:24;;;;;;;8.07;3.55;;;;;;;16.12;93.12;100770.63;4996914;28;20065;-77
2023/07/27 00:50:50;;;;;;;6.47;3.33;;;;;;;16.18;92.51;100773.78;5000918;28;20105;-77
2023/07/27 00:53:16;;;;;;;7.28;4.25;;;;;;;16.14;92.96;100773.03;4988654;28;20091;-77
2023/07/27 00:55:43;;;;;;;7.13;3.38;;;;;;;16.14;92.63;100761.72;5012919;28;20463;-78
2023/07/27 00:58:11;;;;;;;6.78;3.63;;;;;;;16.21;93.10;100761.63;4989360;28;20444;-78
2023/07/27 01:00:38;;;;;;;7.32;3.85;;;;;;;16.08;93.63;100758.56;4993468;28;20045;-77
2023/07/27 01:03:04;;;;;;;6.05;3.65;;;;;;;16.13;93.29;100749.63;4991685;28;20072;-77
2023/07/27 01:05:30;;;;;;;5.35;3.92;;;;;;;16.13;93.92;100748.81;4993895;28;20029;-77
2023/07/27 01:07:56;;;;;;;7.95;4.03;;;;;;;16.17;93.52;100756.06;4997309;28;20053;-76
2023/07/27 01:10:32;;;;;;;5.20;3.20;;;;;;;16.12;93.97;100742.38;5003646;28;20029;-77
2023/07/27 01:13:17;;;;;;;7.07;4.45;;;;;;;16.11;93.81;100740.00;5021550;28;20116;-77
2023/07/27 01:15:47;;;;;;;4.30;2.97;;;;;;;16.09;94.25;100725.50;5000859;28;20497;-77
2023/07/27 01:18:25;;;;;;;9.02;3.50;;;;;;;16.10;94.12;100733.53;5008962;28;20496;-77
2023/07/27 01:21:13;;;;;;;7.63;3.70;;;;;;;16.07;94.67;100725.13;5004241;28;20048;-75
2023/07/27 01:23:51;;;;;;;6.55;3.50;;;;;;;16.08;94.16;100715.41;4999300;28;20485;-77
2023/07/27 01:26:55;;;;;;;5.38;2.80;;;;;;;16.01;94.55;100714.25;5002673;28;20032;-77
2023/07/27 01:30:07;;;;;;;6.20;3.38;;;;;;;16.10;94.07;100707.31;4988018;28;20177;-77
2023/07/27 01:32:35;;;;;;;7.60;3.45;;;;;;;15.98;93.86;100706.66;4959206;28;20512;-76
2023/07/27 01:35:02;;;;;;;9.07;4.25;;;;;;;15.84;94.56;100709.59;4994759;28;20478;-76
2023/07/27 01:37:30;;;;;;;4.70;3.60;;;;;;;15.87;94.10;100702.31;5001539;28;20049;-78
2023/07/27 01:39:58;;;;;;;5.15;3.33;;;;;;;15.92;93.85;100699.06;4995822;28;20240;-76
2023/07/27 01:42:26;;;;;;;6.55;4.18;;;;;;;15.78;94.87;100694.34;4995601;28;20560;-78
2023/07/27 01:44:53;;;;;;;9.15;4.50;;;;;;;15.79;94.96;100695.94;5014079;28;20418;-78
2023/07/27 01:47:20;;;;;;;7.03;4.38;;;;;;;15.79;94.55;100685.47;4997297;28;20085;-77
2023/07/27 01:49:46;;;;;;;7.78;4.72;;;;;;;15.62;96.29;100686.41;4995664;28;20599;-78
2023/07/27 01:52:14;;;;;;;8.25;5.57;;;;;;;15.60;96.46;100688.81;5001272;28;20062;-78
2023/07/27 01:54:39;;;;;;;9.57;5.13;;;;;;;15.56;96.75;100683.25;4997903;28;20026;-77
2023/07/27 01:57:06;;;;;;;11.05;5.00;;;;;;;15.59;96.37;100684.41;4996293;28;20612;-77
2023/07/27 01:59:33;;;;;;;11.75;4.85;;;;;;;15.47;97.70;100687.75;5009044;28;20030;-77
2023/07/27 02:02:01;;;;;;;8.60;5.68;;;;;;;15.62;96.49;100687.22;5001577;28;20041;-76
2023/07/27 02:04:27;;;;;;;8.85;4.95;;;;;;;15.61;96.67;100694.06;4993240;28;20034;-76
2023/07/27 02:06:52;;;;;;;8.18;4.78;;;;;;;15.61;99.54;100684.81;4994662;28;20132;-77
2023/07/27 02:09:18;;;;;;;9.43;5.07;;;;;;;15.64;97.35;100690.41;4990480;28;20724;-76
2023/07/27 02:11:50;;;;;;;10.48;4.55;;;;;;;15.58;99.97;100686.44;4994648;28;20132;-76
2023/07/27 02:14:34;;;;;;;7.88;4.35;;;;;;;15.67;98.54;100688.78;4998234;28;20083;-76
2023/07/27 02:17:04;;;;;;;10.23;4.70;;;;;;;15.57;100.00;100690.47;4998788;28;20409;-76
2023/07/27 02:19:32;;;;;;;10.52;4.95;;;;;;;15.61;100.00;100688.41;4990569;28;20044;-76
2023/07/27 02:21:58;;;;;;;8.00;4.38;;;;;;;15.57;100.00;100684.81;4995007;28;20042;-76
2023/07/27 02:24:24;;;;;;;6.40;4.88;;;;;;;15.55;100.00;100675.19;4999113;28;20026;-77
2023/07/27 02:26:50;;;;;;;7.50;3.90;;;;;;;15.47;100.00;100677.25;4995876;28;20030;-76
2023/07/27 02:29:16;;;;;;;8.57;4.85;;;;;;;15.44;100.00;100678.91;4999138;28;20044;-77
2023/07/27 02:31:42;;;;;;;9.80;4.55;;;;;;;15.42;100.00;100672.09;4995154;28;20383;-77
2023/07/27 02:34:07;;;;;;;8.82;4.57;;;;;;;15.27;100.00;100667.78;4995717;28;20033;-76
2023/07/27 02:36:32;;;;;;;11.07;3.72;;;;;;;15.42;100.00;100660.81;5009301;28;20152;-77
2023/07/27 02:38:58;;;;;;;7.03;3.97;;;;;;;15.39;100.00;100667.25;4995553;28;20029;-77
2023/07/27 02:41:23;;;;;;;8.02;4.30;;;;;;;15.21;100.00;100656.16;5004586;28;20030;-77
2023/07/27 02:43:48;;;;;;;9.82;5.18;;;;;;;15.25;100.00;100663.34;4997373;28;20034;-76
2023/07/27 02:46:14;;;;;;;7.68;4.57;;;;;;;15.56;100.00;100654.25;4997680;28;20777;-77
2023/07/27 02:48:39;;;;;;;7.90;4.25;;;;;;;15.36;100.00;100649.16;4996361;28;20036;-77
2023/07/27 02:51:05;;;;;;;7.70;4.32;;;;;;;15.48;100.00;100647.84;5012595;28;20048;-77
2023/07/27 02:53:30;;;;;;;7.53;3.80;;;;;;;15.49;100.00;100643.00;4997550;28;20033;-77
2023/07/27 02:56:00;;;;;;;5.88;3.70;;;;;;;15.41;100.00;100647.91;5001052;28;20548;-77
2023/07/27 02:58:26;;;;;;;7.85;3.30;;;;;;;15.40;100.00;100640.66;4989845;28;20119;-77
2023/07/27 03:00:58;;;;;;;8.15;3.50;;;;;;;15.31;100.00;100643.97;4990184;28;20044;-78
2023/07/27 03:03:26;;;;;;;6.35;3.58;;;;;;;15.40;100.00;100630.19;4991812;28;20041;-78
2023/07/27 03:05:59;;;;;;;8.02;3.88;;;;;;;15.31;100.00;100629.09;4993235;28;20068;-77
2023/07/27 03:08:28;;;;;;;6.22;3.33;;;;;;;15.36;100.00;100628.63;4986352;28;20314;-78
2023/07/27 03:10:55;;;;;;;7.50;3.97;;;;;;;15.28;100.00;100629.91;4993228;28;20084;-79
2023/07/27 03:13:20;;;;;;;5.88;3.90;;;;;;;15.40;100.00;100624.53;4993432;28;20034;-78
2023/07/27 03:15:46;;;;;;;6.32;3.72;;;;;;;15.50;100.00;100622.06;4997875;28;20033;-78
2023/07/27 03:18:11;;;;;;;5.80;3.65;;;;;;;15.52;100.00;100614.78;4990235;28;20228;-78
2023/07/27 03:20:41;;;;;;;6.75;3.33;;;;;;;15.67;100.00;100614.63;4984866;28;20386;-78
2023/07/27 03:23:08;;;;;;;5.50;3.22;;;;;;;15.53;100.00;100605.06;4993734;28;20025;-80
2023/07/27 03:25:34;;;;;;;8.32;2.95;;;;;;;15.63;100.00;100606.97;4998933;28;20428;-77
2023/07/27 03:28:04;;;;;;;6.97;3.30;;;;;;;15.69;100.00;100603.72;4995273;28;20057;-78
2023/07/27 03:30:29;;;;;;;6.28;3.72;;;;;;;15.30;100.00;100591.59;4999773;28;20021;-80
2023/07/27 03:32:55;;;;;;;3.63;2.55;;;;;;;15.42;100.00;100598.75;5011361;28;20594;-79
2023/07/27 03:35:20;;;;;;;6.93;4.22;;;;;;;15.45;100.00;100587.44;4992996;28;20065;-80
2023/07/27 03:37:46;;;;;;;5.13;3.15;;;;;;;15.43;100.00;100589.06;4987987;28;20037;-79
2023/07/27 03:40:11;;;;;;;6.80;3.50;;;;;;;15.51;100.00;100578.50;4992985;28;20034;-79
2023/07/27 03:42:36;;;;;;;6.20;3.47;;;;;;;15.47;100.00;100570.06;4996680;28;20045;-79
2023/07/27 03:45:02;;;;;;;4.88;3.28;;;;;;;15.49;100.00;100570.47;4997498;28;20033;-79
2023/07/27 03:47:27;;;;;;;6.28;3.50;;;;;;;15.42;100.00;100565.69;5010427;28;20107;-79
2023/07/27 03:49:53;;;;;;;10.52;4.28;;;;;;;15.29;100.00;100561.03;4996585;28;20049;-79
2023/07/27 03:52:18;;;;;;;4.80;3.28;;;;;;;15.30;100.00;100554.94;4991060;28;20466;-79
2023/07/27 03:54:43;;;;;;;7.38;4.38;;;;;;;15.39;100.00;100555.28;4992993;28;20048;-79
2023/07/27 03:57:09;;;;;;;8.80;4.22;;;;;;;15.43;100.00;100543.94;5000290;28;20517;-79
2023/07/27 03:59:34;;;;;;;5.45;3.30;;;;;;;15.36;100.00;100549.66;4990332;28;20088;-79
2023/07/27 04:02:00;;;;;;;6.97;4.15;;;;;;;15.20;100.00;100542.56;4992552;28;20033;-79
2023/07/27 04:04:25;;;;;;;5.93;3.95;;;;;;;15.13;100.00;100541.84;4989096;28;20595;-79
2023/07/27 04:06:51;;;;;;;5.35;3.38;;;;;;;15.13;100.00;100530.56;4989194;28;20158;-79
2023/07/27 04:09:16;;;;;;;7.00;4.00;;;;;;;15.11;100.00;100522.50;4995643;28;20446;-79
2023/07/27 04:11:41;;;;;;;8.40;4.32;;;;;;;14.88;100.00;100527.97;5010849;28;20056;-78
2023/07/27 04:14:07;;;;;;;5.70;4.00;;;;;;;14.98;100.00;100513.78;4991519;28;20502;-79
2023/07/27 04:16:32;;;;;;;6.13;3.53;;;;;;;15.10;100.00;100508.84;4995934;28;20083;-78
2023/07/27 04:18:58;;;;;;;4.35;3.05;;;;;;;15.19;100.00;100512.75;4996982;28;20056;-78
2023/07/27 04:21:23;;;;;;;5.10;3.45;;;;;;;15.22;100.00;100503.50;4997614;28;21101;-78
2023/07/27 04:23:49;;;;;;;7.18;3.50;;;;;;;15.30;100.00;100506.22;4995043;28;20108;-77
2023/07/27 04:26:14;;;;;;;6.10;3.22;;;;;;;15.01;100.00;100496.06;4995457;28;20034;-78
2023/07/27 04:28:39;;;;;;;7.82;4.60;;;;;;;15.09;100.00;100495.97;4999627;28;20026;-79
2023/07/27 04:31:05;;;;;;;6.43;3.53;;;;;;;15.20;100.00;100496.63;5001813;28;20030;-79
2023/07/27 04:33:30;;;;;;;6.65;4.07;;;;;;;15.21;100.00;100490.59;5000955;28;20044;-78
2023/07/27 04:35:59;;;;;;;5.68;3.67;;;;;;;15.19;100.00;100483.78;4995446;28;20033;-79
2023/07/27 04:38:24;;;;;;;8.77;4.05;;;;;;;15.25;100.00;100482.91;4994575;28;20450;-78
2023/07/27 04:40:51;;;;;;;9.23;4.10;;;;;;;15.01;100.00;100467.88;5003139;28;20061;-78
2023/07/27 04:43:16;;;;;;;5.32;3.42;;;;;;;15.12;100.00;100464.94;5002410;28;20025;-78
2023/07/27 04:45:42;;;;;;;7.32;4.50;;;;;;;15.10;100.00;100469.38;4999532;28;20034;-78
2023/07/27 04:48:07;;;;;;;9.45;4.45;;;;;;;15.08;100.00;100466.97;4998340;28;20465;-78
2023/07/27 04:50:33;;;;;;;9.05;4.10;;;;;;;15.07;100.00;100456.13;5004391;28;20044;-78
2023/07/27 04:52:59;;;;;;;7.72;4.22;;;;;;;15.05;100.00;100448.06;5004495;28;20444;-79
2023/07/27 04:55:24;;;;;;;8.38;4.25;;;;;;;15.15;100.00;100455.63;4998458;28;20021;-78
2023/07/27 04:57:49;;;;;;;8.95;4.53;;;;;;;14.84;100.00;100446.28;4996907;28;20022;-78
2023/07/27 05:00:15;;;;;;;10.60;5.38;;;;;;;14.77;100.00;100446.38;4992456;28;20041;-78
2023/07/27 05:02:40;;;;;;;9.95;6.47;;;;;;;14.76;100.00;100444.78;4991666;28;20029;-78
2023/07/27 05:05:06;;;;;;;11.20;5.30;;;;;;;14.80;100.00;100434.28;4994021;28;20081;-78
2023/07/27 05:07:31;;;;;;;9.73;5.90;;;;;;;14.91;100.00;100437.78;4990182;28;20050;-79
2023/07/27 05:09:57;;;;;;;9.65;5.72;;;;;;;14.82;100.00;100421.38;4995046;28;20564;-79
2023/07/27 05:12:22;;;;;;;10.38;5.95;;;;;;;14.81;100.00;100419.75;4992382;28;21455;-79
2023/07/27 05:14:48;;;;;;;10.32;5.25;;;;;;;14.96;100.00;100413.97;4997941;28;20045;-79
2023/07/27 05:17:13;;;;;;;9.80;6.38;;;;;;;14.82;100.00;100409.28;4991524;28;20087;-78
2023/07/27 05:19:38;;;;;;;8.48;5.30;;;;;;;14.81;100.00;100407.69;4996145;28;20026;-79
2023/07/27 05:22:04;;;;;;;10.77;6.45;;;;;;;14.97;100.00;100396.66;4997454;28;20134;-78
2023/07/27 05:24:29;;;;;;;10.68;6.28;;;;;;;14.94;100.00;100399.50;4994597;28;20383;-79
2023/07/27 05:26:55;;;;;;;12.55;6.88;;;;;;;14.89;100.00;100405.59;5004642;28;20030;-78
2023/07/27 05:29:20;;;;;;;10.63;5.93;;;;;;;14.75;100.00;100384.78;4992983;28;20053;-79
2023/07/27 05:31:47;;;;;;;10.00;5.93;;;;;;;14.82;100.00;100389.53;4998890;28;20056;-78
2023/07/27 05:34:13;;;;;;;14.13;6.38;;;;;;;15.06;100.00;100384.88;4993117;28;20061;-79
2023/07/27 05:36:38;;;;;;;15.63;7.63;;;;;;;14.89;100.00;100383.06;4997077;28;20751;-78
2023/07/27 05:39:04;;;;;;;14.00;8.13;;;;;;;14.86;100.00;100383.88;4986480;28;20029;-78
2023/07/27 05:41:30;;;;;;;14.80;8.18;;;;;;;14.80;100.00;100383.56;4994775;28;20026;-78
2023/07/27 05:43:55;;;;;;;7.85;3.70;;;;;;;15.74;100.00;100386.81;4989835;28;20029;-76
2023/07/27 05:46:21;;;;;;;12.38;6.93;;;;;;;15.67;100.00;100377.63;4982347;28;20680;-77
2023/07/27 05:48:46;;;;;;;9.95;5.70;;;;;;;15.60;100.00;100373.69;4987193;28;20038;-77
2023/07/27 05:51:12;;;;;;;15.38;8.23;;;;;;;15.25;100.00;100369.31;5000555;28;20014;-77
2023/07/27 05:53:37;;;;;;;14.20;7.97;;;;;;;14.99;100.00;100368.06;4992209;28;20033;-78
2023/07/27 05:56:03;;;;;;;13.43;7.88;;;;;;;14.84;100.00;100373.84;4999733;28;20076;-78
2023/07/27 05:58:28;;;;;;;15.98;7.40;;;;;;;14.92;100.00;100370.94;4998014;28;20516;-78
2023/07/27 06:01:04;;;;;;;13.02;7.45;;;;;;;15.06;100.00;100373.59;5014188;28;20026;-77
2023/07/27 06:03:30;;;;;;;12.23;7.57;;;;;;;15.02;100.00;100361.56;4997165;28;20506;-77
2023/07/27 06:05:56;;;;;;;12.90;7.65;;;;;;;15.15;100.00;100359.78;4989079;28;20546;-78
2023/07/27 06:08:22;;;;;;;12.02;7.63;;;;;;;15.10;100.00;100348.97;4994610;28;20030;-78
2023/07/27 06:10:47;;;;;;;9.20;6.15;;;;;;;15.12;100.00;100357.81;4994497;28;20040;-78
2023/07/27 06:13:13;;;;;;;13.65;8.85;;;;;;;15.04;100.00;100359.13;4992443;28;20122;-77
2023/07/27 06:15:45;;;;;;;11.93;6.80;;;;;;;15.06;100.00;100351.03;4997185;28;20045;-77
2023/07/27 06:18:11;;;;;;;13.60;7.40;;;;;;;14.91;100.00;100350.41;4999055;28;20413;-76
2023/07/27 06:20:36;;;;;;;15.93;7.72;;;;;;;15.09;100.00;100338.13;5001304;28;20042;-77
2023/07/27 06:23:01;;;;;;;12.73;7.60;;;;;;;15.05;100.00;100343.78;4996170;28;20025;-77
2023/07/27 06:25:27;;;;;;;11.90;7.13;;;;;;;15.19;100.00;100342.81;5001095;28;20112;-77
2023/07/27 06:27:52;;;;;;;11.25;5.95;;;;;;;15.35;100.00;100339.41;5007397;28;21419;-77
2023/07/27 06:30:18;;;;;;;10.23;6.07;;;;;;;15.46;100.00;100325.94;4997419;28;20390;-75
2023/07/27 06:32:44;;;;;;;9.15;5.88;;;;;;;15.42;100.00;100319.53;4997464;28;20041;-76
2023/07/27 06:35:09;;;;;;;9.80;6.13;;;;;;;15.23;100.00;100318.19;4999946;28;20034;-76
2023/07/27 06:37:35;;;;;;;7.78;5.22;;;;;;;15.01;100.00;100321.31;5006273;28;20079;-78
2023/07/27 06:40:00;;;;;;;8.95;6.13;;;;;;;15.06;100.00;100324.88;5001845;28;20125;-77
2023/07/27 06:42:25;;;;;;;7.78;5.82;;;;;;;14.87;100.00;100318.66;5003065;28;20037;-76
2023/07/27 06:44:51;;;;;;;9.05;5.70;;;;;;;15.01;100.00;100320.50;4997200;28;20133;-77
2023/07/27 06:47:16;;;;;;;10.35;5.60;;;;;;;15.00;100.00;100307.63;5014620;28;20048;-77
2023/07/27 06:49:42;;;;;;;9.80;5.40;;;;;;;15.06;100.00;100305.94;4999077;28;20095;-76
2023/07/27 06:52:09;;;;;;;8.40;5.78;;;;;;;15.16;100.00;100304.22;4997535;28;20037;-76
2023/07/27 06:54:35;;;;;;;7.97;4.32;;;;;;;15.09;100.00;100288.16;5002773;28;20508;-78
2023/07/27 06:57:01;;;;;;;8.43;5.18;;;;;;;15.00;100.00;100297.16;5008038;28;20081;-78
2023/07/27 06:59:26;;;;;;;6.95;4.13;;;;;;;14.97;100.00;100291.59;5000737;28;20613;-78
2023/07/27 07:01:52;;;;;;;9.02;5.25;;;;;;;14.99;100.00;100294.78;4995265;28;20037;-78
2023/07/27 07:04:17;;;;;;;10.00;5.72;;;;;;;15.05;100.00;100281.78;5004808;28;20129;-78
2023/07/27 07:06:45;;;;;;;6.40;4.35;;;;;;;14.93;100.00;100288.00;4994125;28;20050;-79
2023/07/27 07:09:10;;;;;;;6.40;3.97;;;;;;;15.09;100.00;100282.53;5001797;28;20048;-78
2023/07/27 07:11:36;;;;;;;6.50;3.78;;;;;;;14.88;100.00;100288.47;4997469;28;20112;-78
2023/07/27 07:14:01;;;;;;;5.88;3.20;;;;;;;14.94;100.00;100292.41;4991478;28;20018;-78
2023/07/27 07:16:26;;;;;;;5.72;3.92;;;;;;;15.16;100.00;100288.09;4994570;28;20026;-77
2023/07/27 07:18:52;;;;;;;6.75;3.88;;;;;;;15.15;100.00;100280.84;4998596;28;20041;-78
2023/07/27 07:21:17;;;;;;;7.15;4.10;;;;;;;15.07;100.00;100284.97;5007231;28;20033;-78
2023/07/27 07:23:42;;;;;;;7.15;3.15;;;;;;;15.18;100.00;100291.28;4997197;28;20030;-78
2023/07/27 07:26:08;;;;;;;4.75;3.40;;;;;;;15.27;100.00;100276.66;4999130;28;20092;-82
2023/07/27 07:28:33;;;;;;;4.70;3.40;;;;;;;15.58;100.00;100271.75;4991814;28;20033;-78
2023/07/27 07:30:59;;;;;;;4.57;2.72;;;;;;;15.46;100.00;100275.16;4997191;28;20097;-78
2023/07/27 07:33:24;;;;;;;3.72;2.97;;;;;;;15.31;100.00;100271.78;4993772;28;20046;-77
2023/07/27 07:35:50;;;;;;;3.55;2.55;;;;;;;15.17;100.00;100267.13;4990517;28;20184;-77
2023/07/27 07:38:15;;;;;;;3.58;2.85;;;;;;;15.36;100.00;100270.47;4998162;28;20053;-77
2023/07/27 07:40:40;;;;;;;5.20;3.20;;;;;;;15.40;100.00;100265.59;4990536;28;20033;-78
2023/07/27 07:43:07;;;;;;;4.47;2.88;;;;;;;15.36;100.00;100254.34;4994161;28;20030;-78
2023/07/27 07:45:33;;;;;;;2.72;2.22;;;;;;;15.40;100.00;100259.94;4989548;28;20030;-78
2023/07/27 07:47:59;;;;;;;5.35;2.97;;;;;;;15.44;100.00;100246.59;4998107;28;20030;-78
2023/07/27 07:50:24;;;;;;;4.55;2.85;;;;;;;15.47;100.00;100242.13;5007038;28;20030;-78
2023/07/27 07:52:50;;;;;;;3.47;2.00;;;;;;;15.51;100.00;100235.19;5009532;28;20025;-78
2023/07/27 07:55:15;;;;;;;3.25;2.40;;;;;;;15.42;100.00;100238.56;5001508;28;20037;-78
2023/07/27 07:57:40;;;;;;;2.53;2.08;;;;;;;15.50;100.00;100230.00;5000403;28;20041;-78
2023/07/27 08:00:06;;;;;;;2.75;1.90;;;;;;;15.46;100.00;100221.59;5000638;28;20113;-78
2023/07/27 08:02:32;;;;;;;1.92;1.73;;;;;;;15.54;100.00;100211.78;4997148;28;20102;-78
2023/07/27 08:04:57;;;;;;;2.13;1.88;;;;;;;15.65;100.00;100217.25;5001123;28;20090;-77
2023/07/27 08:07:22;;;;;;;2.83;1.92;;;;;;;15.61;100.00;100216.50;5000114;28;20050;-78
2023/07/27 08:09:48;;;;;;;4.50;1.90;;;;;;;15.60;100.00;100214.91;5002674;28;20128;-77
2023/07/27 08:12:13;;;;;;;3.00;2.47;;;;;;;15.58;100.00;100209.69;5003946;28;20026;-77
2023/07/27 08:14:38;;;;;;;3.78;2.70;;;;;;;15.59;100.00;100216.94;5002277;28;20414;-77
2023/07/27 08:17:04;;;;;;;2.38;2.17;;;;;;;15.58;100.00;100201.25;5003804;28;20025;-78
2023/07/27 08:19:29;;;;;;;4.70;1.80;;;;;;;15.62;100.00;100207.63;4989907;28;20044;-77
2023/07/27 08:21:55;;;;;;;6.05;1.50;;;;;;;15.58;100.00;100201.25;4991629;28;20906;-77
2023/07/27 08:24:20;;;;;;;1.85;1.70;;;;;;;15.58;100.00;100203.25;4997845;28;21469;-77
2023/07/27 08:26:46;;;;;;;2.47;1.80;;;;;;;15.72;100.00;100199.41;4997961;28;20105;-77
2023/07/27 08:29:11;;;;;;;2.45;1.85;;;;;;;15.75;100.00;100198.56;4996411;28;20433;-78
2023/07/27 08:31:37;;;;;;;1.88;1.27;;;;;;;15.70;100.00;100201.84;5000422;28;20040;-78
2023/07/27 08:34:02;;;;;;;3.05;2.13;;;;;;;15.68;100.00;100198.66;5014312;28;20562;-78
2023/07/27 08:36:28;;;;;;;2.15;1.65;;;;;;;15.76;100.00;100195.31;5012298;28;20041;-77
2023/07/27 08:38:53;;;;;;;2.17;1.42;;;;;;;15.79;100.00;100200.09;5000050;28;20148;-78
2023/07/27 08:41:19;;;;;;;2.58;2.00;;;;;;;15.95;100.00;100204.25;4997439;28;20046;-78
2023/07/27 08:43:45;;;;;;;2.25;2.05;;;;;;;15.94;100.00;100194.16;4997814;28;20040;-78
2023/07/27 08:46:11;;;;;;;2.13;1.92;;;;;;;16.02;100.00;100195.63;4997247;28;20117;-78
2023/07/27 08:48:37;;;;;;;2.88;2.17;;;;;;;16.05;100.00;100195.56;4996844;28;20034;-77
2023/07/27 08:51:03;;;;;;;2.75;1.90;;;;;;;16.06;100.00;100196.38;4993903;28;20030;-77
2023/07/27 08:53:29;;;;;;;2.65;2.22;;;;;;;16.24;100.00;100194.00;4997410;28;20034;-77
2023/07/27 08:55:58;;;;;;;2.25;1.80;;;;;;;16.31;100.00;100195.09;5002704;28;20036;-77
2023/07/27 08:58:23;;;;;;;3.28;2.47;;;;;;;16.27;100.00;100189.50;4999883;28;20021;-77
2023/07/27 09:00:49;;;;;;;3.92;2.15;;;;;;;16.38;100.00;100201.41;4999604;28;20033;-77
2023/07/27 09:03:14;;;;;;;3.10;2.80;;;;;;;16.33;100.00;100196.25;4997029;28;20042;-77
2023/07/27 09:05:42;;;;;;;3.67;2.83;;;;;;;16.30;100.00;100194.31;4997606;28;20117;-76
2023/07/27 09:08:12;;;;;;;3.22;2.72;;;;;;;16.18;100.00;100186.47;5015125;28;20080;-77
2023/07/27 09:10:39;;;;;;;3.42;2.38;;;;;;;16.18;100.00;100200.59;4995118;28;20021;-76
2023/07/27 09:13:05;;;;;;;3.47;2.08;;;;;;;16.23;100.00;100203.72;5002909;28;20032;-76
2023/07/27 09:15:33;;;;;;;2.80;2.47;;;;;;;16.36;100.00;100203.03;4995740;28;20030;-77
2023/07/27 09:18:01;;;;;;;3.13;2.60;;;;;;;16.52;100.00;100193.84;4995004;28;20073;-78
2023/07/27 09:20:29;;;;;;;3.20;2.17;;;;;;;16.44;100.00;100187.53;4995594;28;20034;-76
2023/07/27 09:22:59;;;;;;;3.72;3.10;;;;;;;16.58;100.00;100183.63;4995422;28;20353;-76
2023/07/27 09:25:24;;;;;;;3.58;2.72;;;;;;;16.50;100.00;100180.16;4996935;28;20033;-76
2023/07/27 09:27:55;;;;;;;3.25;2.63;;;;;;;16.53;100.00;100184.13;4994058;28;20112;-76
2023/07/27 09:30:21;;;;;;;4.03;3.25;;;;;;;16.60;100.00;100175.53;4996976;28;20886;-77
2023/07/27 09:32:47;;;;;;;4.05;2.53;;;;;;;16.55;100.00;100176.03;4997984;28;20030;-78
2023/07/27 09:35:14;;;;;;;3.22;2.80;;;;;;;16.59;100.00;100176.75;4999330;28;20065;-75
2023/07/27 09:37:48;;;;;;;5.07;2.75;;;;;;;16.43;100.00;100181.09;4996327;28;20048;-76
2023/07/27 09:40:16;;;;;;;2.88;2.40;;;;;;;16.53;100.00;100178.47;4991041;28;20023;-76
2023/07/27 09:42:44;;;;;;;3.10;2.80;;;;;;;16.58;100.00;100170.31;4999842;28;20095;-76
2023/07/27 09:45:10;;;;;;;3.25;2.90;;;;;;;16.65;100.00;100170.16;4996948;28;20516;-76
2023/07/27 09:47:35;;;;;;;4.40;2.97;;;;;;;16.64;100.00;100173.41;4992731;28;20475;-77
2023/07/27 09:50:02;;;;;;;2.83;2.50;;;;;;;16.76;100.00;100172.75;5015947;28;20045;-76
2023/07/27 09:52:28;;;;;;;5.35;3.10;;;;;;;16.64;100.00;100174.22;4992090;28;20041;-79
2023/07/27 09:54:56;;;;;;;2.65;2.40;;;;;;;16.69;100.00;100170.06;4997609;28;20467;-80
2023/07/27 09:57:22;;;;;;;3.05;2.75;;;;;;;16.66;100.00;100166.09;4995727;28;20111;-79
2023/07/27 09:59:48;;;;;;;3.53;2.67;;;;;;;16.66;100.00;100168.91;5004872;28;20084;-79
2023/07/27 10:02:14;;;;;;;3.67;2.80;;;;;;;16.64;100.00;100168.56;4998971;28;20091;-79
2023/07/27 10:04:42;;;;;;;3.55;2.92;;;;;;;16.66;100.00;100170.94;5019147;28;20022;-80
2023/07/27 10:07:08;;;;;;;4.18;3.47;;;;;;;16.68;100.00;100165.66;4994557;28;20065;-80
2023/07/27 10:09:38;;;;;;;3.28;2.95;;;;;;;16.79;100.00;100174.69;5000399;28;20132;-82
2023/07/27 10:12:04;;;;;;;3.83;3.25;;;;;;;16.81;100.00;100169.41;4998041;28;20402;-83
2023/07/27 10:14:31;;;;;;;3.25;2.90;;;;;;;16.82;100.00;100168.19;5001977;28;20037;-83
2023/07/27 10:17:04;;;;;;;2.83;2.28;;;;;;;17.05;100.00;100160.78;5016478;28;20042;-84
2023/07/27 10:19:44;;;;;;;4.45;2.58;;;;;;;17.00;100.00;100161.34;5000066;28;20040;-85
2023/07/27 10:22:17;;;;;;;5.00;3.08;;;;;;;17.13;100.00;100164.25;5002321;28;20038;-85
2023/07/27 10:24:49;;;;;;;3.40;2.70;;;;;;;17.14;100.00;100174.31;4999913;28;20075;-83
2023/07/27 10:27:14;;;;;;;3.40;2.85;;;;;;;17.12;100.00;100171.97;5009305;28;20038;-86
2023/07/27 10:29:45;;;;;;;3.15;2.22;;;;;;;17.18;100.00;100173.03;4993791;28;20473;-79
2023/07/27 10:32:11;;;;;;;5.07;2.50;;;;;;;17.19;100.00;100180.25;4990689;28;20482;-79
2023/07/27 10:34:38;;;;;;;5.82;2.58;;;;;;;17.38;100.00;100180.63;4994685;28;20025;-80
2023/07/27 10:37:12;;;;;;;3.90;2.38;;;;;;;17.38;100.00;100180.63;4999860;28;20037;-79
2023/07/27 10:39:46;;;;;;;3.25;2.95;;;;;;;17.46;100.00;100187.69;5012917;28;20034;-79
2023/07/27 10:42:14;;;;;;;3.67;2.60;;;;;;;17.53;100.00;100176.19;4995828;28;20036;-79
2023/07/27 10:44:57;;;;;;;4.30;3.08;;;;;;;17.68;100.00;100179.44;4997149;28;20114;-79
2023/07/27 10:47:32;;;;;;;3.85;2.60;;;;;;;17.80;100.00;100187.22;4995715;28;20114;-77
2023/07/27 10:49:58;;;;;;;3.10;2.70;;;;;;;17.91;100.00;100189.00;4998527;28;20037;-79
2023/07/27 10:52:31;;;;;;;4.65;2.20;;;;;;;17.93;100.00;100175.97;5006449;28;20478;-79
2023/07/27 10:54:59;;;;;;;4.15;2.33;;;;;;;18.03;100.00;100174.91;4996817;28;20026;-79
2023/07/27 10:57:26;;;;;;;5.45;2.50;;;;;;;18.23;100.00;100166.25;4998649;28;20509;-79
2023/07/27 10:59:52;;;;;;;2.05;1.85;;;;;;;18.12;100.00;100171.41;4988478;28;20565;-79
2023/07/27 11:02:21;;;;;;;2.00;1.55;;;;;;;18.25;100.00;100151.63;4991685;28;20118;-78
2023/07/27 11:04:49;;;;;;;2.72;2.15;;;;;;;18.48;100.00;100153.38;5000116;28;20025;-79
2023/07/27 11:07:25;;;;;;;2.95;1.75;;;;;;;18.51;100.00;100151.69;4998697;28;20157;-79
2023/07/27 11:09:50;;;;;;;2.42;2.10;;;;;;;18.69;100.00;100149.91;4998488;28;20517;-79
2023/07/27 11:12:15;;;;;;;2.25;1.50;;;;;;;18.58;100.00;100166.44;4990364;28;20026;-79
2023/07/27 11:14:41;;;;;;;2.05;1.40;;;;;;;18.44;100.00;100153.50;4996120;28;20558;-79
2023/07/27 11:17:07;;;;;;;2.10;1.80;;;;;;;18.67;100.00;100157.28;4994241;28;20040;-79